sensor_id;sensor_type;location;lat;lon;timestamp;P1;durP1;ratioP1;P2;durP2;ratioP2
22480;SDS011;11407;56.964;-2.212;2022-07-12T00:00:54;2.33;;;1.70;;
22480;SDS011;11407;56.964;-2.212;2022-07-12T00:03:20;2.40;;;2.03;;
22480;SDS011;11407;56.964;-2.212;2022-07-12T00:05:46;1.90;;;1.80;;
22480;SDS011;11407;56.964;-2.212;2022-07-12T00:08:11;3.63;;;1.87;;
22480;SDS011;11407;56.964;-2.212;2022-07-12T00:10:37;3.40;;;1.80;;
22480;SDS011;11407;56.964;-2.212;2022-07-12T00:13:03;2.00;;;1.80;;
22480;SDS011;11407;56.964;-2.212;2022-07-12T00:15:29;2.10;;;1.90;;
22480;SDS011;11407;56.964;-2.212;2022-07-12T00:17:54;3.07;;;2.17;;
22480;SDS011;11407;56.964;-2.212;2022-07-12T00:20:20;2.70;;;2.00;;
22480;SDS011;11407;56.964;-2.212;2022-07-12T00:22:45;2.10;;;1.90;;
22480;SDS011;11407;56.964;-2.212;2022-07-12T00:25:14;2.10;;;1.90;;
22480;SDS011;11407;56.964;-2.212;2022-07-12T00:27:40;2.40;;;2.10;;
22480;SDS011;11407;56.964;-2.212;2022-07-12T00:30:06;2.13;;;1.93;;
22480;SDS011;11407;56.964;-2.212;2022-07-12T00:32:32;2.37;;;2.17;;
22480;SDS011;11407;56.964;-2.212;2022-07-12T00:34:58;5.17;;;2.87;;
22480;SDS011;11407;56.964;-2.212;2022-07-12T00:37:24;4.70;;;2.80;;
22480;SDS011;11407;56.964;-2.212;2022-07-12T00:39:50;3.70;;;2.80;;
22480;SDS011;11407;56.964;-2.212;2022-07-12T00:42:16;4.13;;;2.80;;
22480;SDS011;11407;56.964;-2.212;2022-07-12T00:44:41;2.67;;;2.47;;
22480;SDS011;11407;56.964;-2.212;2022-07-12T00:47:07;3.73;;;2.50;;
22480;SDS011;11407;56.964;-2.212;2022-07-12T00:49:32;4.70;;;2.70;;
22480;SDS011;11407;56.964;-2.212;2022-07-12T00:51:58;4.17;;;2.77;;
22480;SDS011;11407;56.964;-2.212;2022-07-12T00:54:23;2.60;;;2.40;;
22480;SDS011;11407;56.964;-2.212;2022-07-12T00:56:49;3.20;;;2.70;;
22480;SDS011;11407;56.964;-2.212;2022-07-12T00:59:14;2.60;;;2.40;;
22480;SDS011;11407;56.964;-2.212;2022-07-12T01:01:41;3.50;;;2.50;;
22480;SDS011;11407;56.964;-2.212;2022-07-12T01:04:07;2.70;;;2.23;;
22480;SDS011;11407;56.964;-2.212;2022-07-12T01:06:33;2.87;;;2.30;;
22480;SDS011;11407;56.964;-2.212;2022-07-12T01:09:00;2.90;;;2.47;;
22480;SDS011;11407;56.964;-2.212;2022-07-12T01:11:27;2.53;;;2.30;;
22480;SDS011;11407;56.964;-2.212;2022-07-12T01:13:53;2.23;;;2.00;;
22480;SDS011;11407;56.964;-2.212;2022-07-12T01:16:19;3.13;;;2.80;;
22480;SDS011;11407;56.964;-2.212;2022-07-12T01:18:46;3.20;;;2.50;;
22480;SDS011;11407;56.964;-2.212;2022-07-12T01:21:12;4.57;;;2.50;;
22480;SDS011;11407;56.964;-2.212;2022-07-12T01:23:46;2.60;;;2.40;;
22480;SDS011;11407;56.964;-2.212;2022-07-12T01:26:12;3.17;;;2.70;;
22480;SDS011;11407;56.964;-2.212;2022-07-12T01:28:38;3.37;;;2.47;;
22480;SDS011;11407;56.964;-2.212;2022-07-12T01:31:03;3.53;;;2.37;;
22480;SDS011;11407;56.964;-2.212;2022-07-12T01:33:30;3.10;;;2.70;;
22480;SDS011;11407;56.964;-2.212;2022-07-12T01:35:56;2.57;;;2.37;;
22480;SDS011;11407;56.964;-2.212;2022-07-12T01:38:22;4.00;;;2.60;;
22480;SDS011;11407;56.964;-2.212;2022-07-12T01:40:48;3.53;;;2.40;;
22480;SDS011;11407;56.964;-2.212;2022-07-12T01:43:14;4.30;;;2.60;;
22480;SDS011;11407;56.964;-2.212;2022-07-12T01:45:39;2.60;;;2.40;;
22480;SDS011;11407;56.964;-2.212;2022-07-12T01:48:06;2.90;;;2.60;;
22480;SDS011;11407;56.964;-2.212;2022-07-12T01:50:32;4.07;;;2.30;;
22480;SDS011;11407;56.964;-2.212;2022-07-12T01:52:57;4.27;;;2.90;;
22480;SDS011;11407;56.964;-2.212;2022-07-12T01:55:24;4.70;;;2.73;;
22480;SDS011;11407;56.964;-2.212;2022-07-12T01:57:50;3.63;;;2.60;;
22480;SDS011;11407;56.964;-2.212;2022-07-12T02:00:16;5.57;;;2.90;;
22480;SDS011;11407;56.964;-2.212;2022-07-12T02:02:44;4.73;;;2.70;;
22480;SDS011;11407;56.964;-2.212;2022-07-12T02:05:10;5.30;;;2.80;;
22480;SDS011;11407;56.964;-2.212;2022-07-12T02:07:36;5.03;;;2.70;;
22480;SDS011;11407;56.964;-2.212;2022-07-12T02:10:04;5.67;;;2.60;;
22480;SDS011;11407;56.964;-2.212;2022-07-12T02:12:33;3.60;;;2.60;;
22480;SDS011;11407;56.964;-2.212;2022-07-12T02:14:59;4.53;;;2.50;;
22480;SDS011;11407;56.964;-2.212;2022-07-12T02:17:25;3.50;;;2.43;;
22480;SDS011;11407;56.964;-2.212;2022-07-12T02:19:50;3.73;;;2.50;;
22480;SDS011;11407;56.964;-2.212;2022-07-12T02:22:16;2.67;;;2.30;;
22480;SDS011;11407;56.964;-2.212;2022-07-12T02:24:42;7.27;;;2.73;;
22480;SDS011;11407;56.964;-2.212;2022-07-12T02:27:08;3.37;;;2.17;;
22480;SDS011;11407;56.964;-2.212;2022-07-12T02:29:33;3.70;;;2.60;;
22480;SDS011;11407;56.964;-2.212;2022-07-12T02:32:01;3.50;;;2.30;;
22480;SDS011;11407;56.964;-2.212;2022-07-12T02:34:27;3.53;;;2.30;;
22480;SDS011;11407;56.964;-2.212;2022-07-12T02:36:53;3.23;;;2.50;;
22480;SDS011;11407;56.964;-2.212;2022-07-12T02:39:18;3.63;;;2.30;;
22480;SDS011;11407;56.964;-2.212;2022-07-12T02:41:44;4.33;;;2.60;;
22480;SDS011;11407;56.964;-2.212;2022-07-12T02:44:09;2.90;;;2.20;;
22480;SDS011;11407;56.964;-2.212;2022-07-12T02:46:35;3.50;;;2.20;;
22480;SDS011;11407;56.964;-2.212;2022-07-12T02:49:00;3.10;;;2.33;;
22480;SDS011;11407;56.964;-2.212;2022-07-12T02:51:25;4.60;;;2.30;;
22480;SDS011;11407;56.964;-2.212;2022-07-12T02:53:51;5.57;;;2.30;;
22480;SDS011;11407;56.964;-2.212;2022-07-12T02:56:16;4.43;;;2.27;;
22480;SDS011;11407;56.964;-2.212;2022-07-12T02:58:42;3.87;;;2.30;;
22480;SDS011;11407;56.964;-2.212;2022-07-12T03:01:07;2.50;;;2.30;;
22480;SDS011;11407;56.964;-2.212;2022-07-12T03:03:33;3.37;;;2.37;;
22480;SDS011;11407;56.964;-2.212;2022-07-12T03:05:58;3.83;;;2.40;;
22480;SDS011;11407;56.964;-2.212;2022-07-12T03:08:24;3.97;;;2.43;;
22480;SDS011;11407;56.964;-2.212;2022-07-12T03:10:49;4.50;;;2.50;;
22480;SDS011;11407;56.964;-2.212;2022-07-12T03:13:15;3.80;;;2.50;;
22480;SDS011;11407;56.964;-2.212;2022-07-12T03:15:40;3.50;;;2.30;;
22480;SDS011;11407;56.964;-2.212;2022-07-12T03:18:06;4.63;;;2.53;;
22480;SDS011;11407;56.964;-2.212;2022-07-12T03:20:31;3.73;;;2.33;;
22480;SDS011;11407;56.964;-2.212;2022-07-12T03:22:57;2.87;;;2.53;;
22480;SDS011;11407;56.964;-2.212;2022-07-12T03:25:23;2.70;;;2.33;;
22480;SDS011;11407;56.964;-2.212;2022-07-12T03:27:49;3.00;;;2.27;;
22480;SDS011;11407;56.964;-2.212;2022-07-12T03:30:15;3.17;;;2.33;;
22480;SDS011;11407;56.964;-2.212;2022-07-12T03:32:41;3.37;;;2.40;;
22480;SDS011;11407;56.964;-2.212;2022-07-12T03:35:07;2.83;;;2.60;;
22480;SDS011;11407;56.964;-2.212;2022-07-12T03:40:13;3.47;;;2.50;;
22480;SDS011;11407;56.964;-2.212;2022-07-12T03:42:39;2.23;;;2.03;;
22480;SDS011;11407;56.964;-2.212;2022-07-12T03:45:05;3.63;;;2.33;;
22480;SDS011;11407;56.964;-2.212;2022-07-12T03:47:31;2.47;;;2.20;;
22480;SDS011;11407;56.964;-2.212;2022-07-12T03:49:57;3.77;;;2.13;;
22480;SDS011;11407;56.964;-2.212;2022-07-12T03:52:23;2.50;;;2.30;;
22480;SDS011;11407;56.964;-2.212;2022-07-12T03:54:49;2.20;;;2.00;;
22480;SDS011;11407;56.964;-2.212;2022-07-12T03:57:14;2.20;;;2.00;;
22480;SDS011;11407;56.964;-2.212;2022-07-12T03:59:43;2.47;;;2.27;;
22480;SDS011;11407;56.964;-2.212;2022-07-12T04:02:10;3.63;;;2.47;;
22480;SDS011;11407;56.964;-2.212;2022-07-12T04:04:37;2.37;;;2.10;;
22480;SDS011;11407;56.964;-2.212;2022-07-12T04:07:02;3.07;;;2.13;;
22480;SDS011;11407;56.964;-2.212;2022-07-12T04:09:28;2.33;;;2.13;;
22480;SDS011;11407;56.964;-2.212;2022-07-12T04:11:54;2.60;;;2.20;;
22480;SDS011;11407;56.964;-2.212;2022-07-12T04:14:19;2.27;;;2.07;;
22480;SDS011;11407;56.964;-2.212;2022-07-12T04:16:45;2.50;;;2.10;;
22480;SDS011;11407;56.964;-2.212;2022-07-12T04:19:10;2.87;;;2.20;;
22480;SDS011;11407;56.964;-2.212;2022-07-12T04:21:36;2.50;;;2.30;;
22480;SDS011;11407;56.964;-2.212;2022-07-12T04:24:02;2.77;;;2.07;;
22480;SDS011;11407;56.964;-2.212;2022-07-12T04:26:29;2.73;;;1.97;;
22480;SDS011;11407;56.964;-2.212;2022-07-12T04:28:54;2.17;;;1.93;;
22480;SDS011;11407;56.964;-2.212;2022-07-12T04:31:20;2.23;;;1.87;;
22480;SDS011;11407;56.964;-2.212;2022-07-12T04:33:45;2.30;;;2.10;;
22480;SDS011;11407;56.964;-2.212;2022-07-12T04:36:10;3.60;;;2.00;;
22480;SDS011;11407;56.964;-2.212;2022-07-12T04:38:36;2.93;;;2.00;;
22480;SDS011;11407;56.964;-2.212;2022-07-12T04:41:02;2.93;;;2.33;;
22480;SDS011;11407;56.964;-2.212;2022-07-12T04:43:27;2.13;;;1.90;;
22480;SDS011;11407;56.964;-2.212;2022-07-12T04:45:53;1.93;;;1.80;;
22480;SDS011;11407;56.964;-2.212;2022-07-12T04:48:18;3.73;;;1.97;;
22480;SDS011;11407;56.964;-2.212;2022-07-12T04:50:43;2.27;;;2.07;;
22480;SDS011;11407;56.964;-2.212;2022-07-12T04:53:09;2.10;;;1.90;;
22480;SDS011;11407;56.964;-2.212;2022-07-12T04:55:35;2.53;;;2.33;;
22480;SDS011;11407;56.964;-2.212;2022-07-12T04:58:01;3.70;;;2.10;;
22480;SDS011;11407;56.964;-2.212;2022-07-12T05:00:26;3.40;;;2.30;;
22480;SDS011;11407;56.964;-2.212;2022-07-12T05:02:52;3.13;;;2.33;;
22480;SDS011;11407;56.964;-2.212;2022-07-12T05:05:18;3.10;;;2.57;;
22480;SDS011;11407;56.964;-2.212;2022-07-12T05:07:44;2.43;;;2.23;;
22480;SDS011;11407;56.964;-2.212;2022-07-12T05:10:09;4.27;;;2.27;;
22480;SDS011;11407;56.964;-2.212;2022-07-12T05:12:35;2.30;;;2.10;;
22480;SDS011;11407;56.964;-2.212;2022-07-12T05:15:00;2.40;;;2.20;;
22480;SDS011;11407;56.964;-2.212;2022-07-12T05:17:26;2.20;;;2.00;;
22480;SDS011;11407;56.964;-2.212;2022-07-12T05:19:52;2.80;;;2.00;;
22480;SDS011;11407;56.964;-2.212;2022-07-12T05:22:17;2.30;;;1.70;;
22480;SDS011;11407;56.964;-2.212;2022-07-12T05:24:43;2.43;;;1.90;;
22480;SDS011;11407;56.964;-2.212;2022-07-12T05:27:09;1.90;;;1.67;;
22480;SDS011;11407;56.964;-2.212;2022-07-12T05:29:35;3.23;;;1.83;;
22480;SDS011;11407;56.964;-2.212;2022-07-12T05:32:01;2.13;;;1.90;;
22480;SDS011;11407;56.964;-2.212;2022-07-12T05:34:27;2.77;;;1.80;;
22480;SDS011;11407;56.964;-2.212;2022-07-12T05:36:53;2.53;;;1.93;;
22480;SDS011;11407;56.964;-2.212;2022-07-12T05:39:19;3.50;;;1.90;;
22480;SDS011;11407;56.964;-2.212;2022-07-12T05:41:44;2.97;;;1.90;;
22480;SDS011;11407;56.964;-2.212;2022-07-12T05:44:11;2.87;;;1.70;;
22480;SDS011;11407;56.964;-2.212;2022-07-12T05:46:37;2.20;;;1.77;;
22480;SDS011;11407;56.964;-2.212;2022-07-12T05:49:04;1.90;;;1.73;;
22480;SDS011;11407;56.964;-2.212;2022-07-12T05:51:30;3.00;;;2.00;;
22480;SDS011;11407;56.964;-2.212;2022-07-12T05:54:13;3.07;;;1.73;;
22480;SDS011;11407;56.964;-2.212;2022-07-12T05:56:39;2.43;;;1.80;;
22480;SDS011;11407;56.964;-2.212;2022-07-12T05:59:05;2.03;;;1.90;;
22480;SDS011;11407;56.964;-2.212;2022-07-12T06:01:30;2.00;;;1.80;;
22480;SDS011;11407;56.964;-2.212;2022-07-12T06:03:55;1.90;;;1.70;;
22480;SDS011;11407;56.964;-2.212;2022-07-12T06:06:21;2.00;;;1.70;;
22480;SDS011;11407;56.964;-2.212;2022-07-12T06:08:46;3.33;;;1.80;;
22480;SDS011;11407;56.964;-2.212;2022-07-12T06:11:12;2.07;;;1.70;;
22480;SDS011;11407;56.964;-2.212;2022-07-12T06:13:37;2.63;;;1.90;;
22480;SDS011;11407;56.964;-2.212;2022-07-12T06:16:03;2.10;;;1.50;;
22480;SDS011;11407;56.964;-2.212;2022-07-12T06:18:35;3.10;;;1.83;;
22480;SDS011;11407;56.964;-2.212;2022-07-12T06:21:01;1.70;;;1.60;;
22480;SDS011;11407;56.964;-2.212;2022-07-12T06:23:26;2.20;;;1.83;;
22480;SDS011;11407;56.964;-2.212;2022-07-12T06:25:52;1.93;;;1.63;;
22480;SDS011;11407;56.964;-2.212;2022-07-12T06:28:17;1.60;;;1.50;;
22480;SDS011;11407;56.964;-2.212;2022-07-12T06:30:43;1.70;;;1.60;;
22480;SDS011;11407;56.964;-2.212;2022-07-12T06:33:08;1.70;;;1.60;;
22480;SDS011;11407;56.964;-2.212;2022-07-12T06:35:34;1.70;;;1.53;;
22480;SDS011;11407;56.964;-2.212;2022-07-12T06:37:59;2.53;;;1.63;;
22480;SDS011;11407;56.964;-2.212;2022-07-12T06:40:25;1.50;;;1.40;;
22480;SDS011;11407;56.964;-2.212;2022-07-12T06:42:51;1.60;;;1.50;;
22480;SDS011;11407;56.964;-2.212;2022-07-12T06:45:16;1.40;;;1.30;;
22480;SDS011;11407;56.964;-2.212;2022-07-12T06:47:42;2.17;;;1.50;;
22480;SDS011;11407;56.964;-2.212;2022-07-12T06:50:07;3.17;;;1.80;;
22480;SDS011;11407;56.964;-2.212;2022-07-12T06:52:33;1.50;;;1.40;;
22480;SDS011;11407;56.964;-2.212;2022-07-12T06:54:59;1.67;;;1.57;;
22480;SDS011;11407;56.964;-2.212;2022-07-12T06:57:25;1.80;;;1.67;;
22480;SDS011;11407;56.964;-2.212;2022-07-12T06:59:58;2.07;;;1.40;;
22480;SDS011;11407;56.964;-2.212;2022-07-12T07:02:24;1.87;;;1.50;;
22480;SDS011;11407;56.964;-2.212;2022-07-12T07:04:50;1.83;;;1.43;;
22480;SDS011;11407;56.964;-2.212;2022-07-12T07:07:15;1.40;;;1.30;;
22480;SDS011;11407;56.964;-2.212;2022-07-12T07:09:41;4.33;;;1.60;;
22480;SDS011;11407;56.964;-2.212;2022-07-12T07:12:06;1.50;;;1.40;;
22480;SDS011;11407;56.964;-2.212;2022-07-12T07:14:32;1.60;;;1.50;;
22480;SDS011;11407;56.964;-2.212;2022-07-12T07:16:58;1.40;;;1.30;;
22480;SDS011;11407;56.964;-2.212;2022-07-12T07:19:24;1.60;;;1.50;;
22480;SDS011;11407;56.964;-2.212;2022-07-12T07:21:51;1.60;;;1.50;;
22480;SDS011;11407;56.964;-2.212;2022-07-12T07:24:20;2.07;;;1.50;;
22480;SDS011;11407;56.964;-2.212;2022-07-12T07:26:46;2.00;;;1.67;;
22480;SDS011;11407;56.964;-2.212;2022-07-12T07:29:12;1.70;;;1.60;;
22480;SDS011;11407;56.964;-2.212;2022-07-12T07:31:56;2.00;;;1.80;;
22480;SDS011;11407;56.964;-2.212;2022-07-12T07:34:21;1.97;;;1.80;;
22480;SDS011;11407;56.964;-2.212;2022-07-12T07:36:48;2.17;;;1.97;;
22480;SDS011;11407;56.964;-2.212;2022-07-12T07:39:14;2.23;;;1.97;;
22480;SDS011;11407;56.964;-2.212;2022-07-12T07:41:40;2.40;;;1.90;;
22480;SDS011;11407;56.964;-2.212;2022-07-12T07:44:05;2.83;;;2.00;;
22480;SDS011;11407;56.964;-2.212;2022-07-12T07:46:31;2.30;;;2.10;;
22480;SDS011;11407;56.964;-2.212;2022-07-12T07:48:56;2.27;;;2.07;;
22480;SDS011;11407;56.964;-2.212;2022-07-12T07:51:22;3.20;;;1.80;;
22480;SDS011;11407;56.964;-2.212;2022-07-12T07:53:47;2.77;;;2.30;;
22480;SDS011;11407;56.964;-2.212;2022-07-12T07:56:12;3.87;;;2.10;;
22480;SDS011;11407;56.964;-2.212;2022-07-12T07:58:38;3.40;;;2.10;;
22480;SDS011;11407;56.964;-2.212;2022-07-12T08:01:03;2.37;;;2.17;;
22480;SDS011;11407;56.964;-2.212;2022-07-12T08:03:29;2.47;;;2.27;;
22480;SDS011;11407;56.964;-2.212;2022-07-12T08:05:55;3.13;;;2.40;;
22480;SDS011;11407;56.964;-2.212;2022-07-12T08:08:22;3.40;;;2.50;;
22480;SDS011;11407;56.964;-2.212;2022-07-12T08:10:49;3.37;;;2.50;;
22480;SDS011;11407;56.964;-2.212;2022-07-12T08:13:17;2.50;;;2.30;;
22480;SDS011;11407;56.964;-2.212;2022-07-12T08:15:43;2.40;;;2.20;;
22480;SDS011;11407;56.964;-2.212;2022-07-12T08:18:08;3.13;;;2.30;;
22480;SDS011;11407;56.964;-2.212;2022-07-12T08:20:34;5.57;;;2.33;;
22480;SDS011;11407;56.964;-2.212;2022-07-12T08:22:59;3.17;;;2.60;;
22480;SDS011;11407;56.964;-2.212;2022-07-12T08:25:25;4.20;;;2.37;;
22480;SDS011;11407;56.964;-2.212;2022-07-12T08:27:50;2.67;;;2.47;;
22480;SDS011;11407;56.964;-2.212;2022-07-12T08:30:15;3.30;;;2.60;;
22480;SDS011;11407;56.964;-2.212;2022-07-12T08:32:44;2.40;;;2.20;;
22480;SDS011;11407;56.964;-2.212;2022-07-12T08:35:10;3.57;;;2.60;;
22480;SDS011;11407;56.964;-2.212;2022-07-12T08:37:37;4.13;;;2.43;;
22480;SDS011;11407;56.964;-2.212;2022-07-12T08:40:02;3.73;;;2.57;;
22480;SDS011;11407;56.964;-2.212;2022-07-12T08:42:30;3.03;;;2.53;;
22480;SDS011;11407;56.964;-2.212;2022-07-12T08:44:56;3.97;;;2.43;;
22480;SDS011;11407;56.964;-2.212;2022-07-12T08:47:22;2.83;;;2.37;;
22480;SDS011;11407;56.964;-2.212;2022-07-12T08:52:46;3.10;;;2.33;;
22480;SDS011;11407;56.964;-2.212;2022-07-12T08:55:23;2.97;;;2.57;;
22480;SDS011;11407;56.964;-2.212;2022-07-12T08:57:54;3.30;;;2.47;;
22480;SDS011;11407;56.964;-2.212;2022-07-12T09:00:21;4.93;;;2.60;;
22480;SDS011;11407;56.964;-2.212;2022-07-12T09:02:55;3.90;;;2.40;;
22480;SDS011;11407;56.964;-2.212;2022-07-12T09:05:22;3.77;;;2.40;;
22480;SDS011;11407;56.964;-2.212;2022-07-12T09:07:50;3.10;;;1.87;;
22480;SDS011;11407;56.964;-2.212;2022-07-12T09:10:16;2.40;;;2.20;;
22480;SDS011;11407;56.964;-2.212;2022-07-12T09:12:43;2.20;;;2.00;;
22480;SDS011;11407;56.964;-2.212;2022-07-12T09:15:10;2.73;;;2.17;;
22480;SDS011;11407;56.964;-2.212;2022-07-12T09:17:36;2.20;;;1.90;;
22480;SDS011;11407;56.964;-2.212;2022-07-12T09:20:02;2.20;;;2.00;;
22480;SDS011;11407;56.964;-2.212;2022-07-12T09:22:28;2.40;;;2.10;;
22480;SDS011;11407;56.964;-2.212;2022-07-12T09:24:54;3.63;;;1.93;;
22480;SDS011;11407;56.964;-2.212;2022-07-12T09:27:25;2.20;;;2.00;;
22480;SDS011;11407;56.964;-2.212;2022-07-12T09:29:51;2.50;;;2.30;;
22480;SDS011;11407;56.964;-2.212;2022-07-12T09:32:17;3.03;;;2.00;;
22480;SDS011;11407;56.964;-2.212;2022-07-12T09:35:02;2.10;;;1.73;;
22480;SDS011;11407;56.964;-2.212;2022-07-12T09:37:47;2.37;;;2.00;;
22480;SDS011;11407;56.964;-2.212;2022-07-12T09:40:13;1.63;;;1.53;;
22480;SDS011;11407;56.964;-2.212;2022-07-12T09:42:39;1.77;;;1.67;;
22480;SDS011;11407;56.964;-2.212;2022-07-12T09:45:06;1.80;;;1.67;;
22480;SDS011;11407;56.964;-2.212;2022-07-12T09:47:34;2.43;;;1.60;;
22480;SDS011;11407;56.964;-2.212;2022-07-12T09:50:00;1.60;;;1.50;;
22480;SDS011;11407;56.964;-2.212;2022-07-12T09:52:26;1.70;;;1.60;;
22480;SDS011;11407;56.964;-2.212;2022-07-12T09:54:53;1.77;;;1.67;;
22480;SDS011;11407;56.964;-2.212;2022-07-12T09:57:27;1.30;;;1.20;;
22480;SDS011;11407;56.964;-2.212;2022-07-12T09:59:53;1.50;;;1.40;;
22480;SDS011;11407;56.964;-2.212;2022-07-12T10:02:19;1.40;;;1.30;;
22480;SDS011;11407;56.964;-2.212;2022-07-12T10:04:47;2.20;;;1.60;;
22480;SDS011;11407;56.964;-2.212;2022-07-12T10:07:12;1.43;;;1.30;;
22480;SDS011;11407;56.964;-2.212;2022-07-12T10:09:40;1.33;;;1.23;;
22480;SDS011;11407;56.964;-2.212;2022-07-12T10:12:07;1.73;;;1.53;;
22480;SDS011;11407;56.964;-2.212;2022-07-12T10:14:35;1.40;;;1.30;;
22480;SDS011;11407;56.964;-2.212;2022-07-12T10:17:02;1.57;;;1.47;;
22480;SDS011;11407;56.964;-2.212;2022-07-12T10:19:34;1.37;;;1.13;;
22480;SDS011;11407;56.964;-2.212;2022-07-12T10:22:01;1.30;;;1.20;;
22480;SDS011;11407;56.964;-2.212;2022-07-12T10:27:26;1.27;;;1.20;;
22480;SDS011;11407;56.964;-2.212;2022-07-12T10:29:44;1.60;;;1.50;;
22480;SDS011;11407;56.964;-2.212;2022-07-12T10:35:13;1.30;;;1.20;;
22480;SDS011;11407;56.964;-2.212;2022-07-12T10:37:42;1.80;;;1.60;;
22480;SDS011;11407;56.964;-2.212;2022-07-12T10:40:45;2.70;;;1.30;;
22480;SDS011;11407;56.964;-2.212;2022-07-12T10:43:12;1.30;;;1.20;;
22480;SDS011;11407;56.964;-2.212;2022-07-12T10:45:40;1.20;;;1.10;;
22480;SDS011;11407;56.964;-2.212;2022-07-12T10:58:33;1.10;;;1.10;;
22480;SDS011;11407;56.964;-2.212;2022-07-12T11:01:03;1.00;;;1.00;;
22480;SDS011;11407;56.964;-2.212;2022-07-12T11:03:40;1.00;;;0.90;;
22480;SDS011;11407;56.964;-2.212;2022-07-12T11:06:09;0.93;;;0.80;;
22480;SDS011;11407;56.964;-2.212;2022-07-12T11:08:54;1.00;;;0.90;;
22480;SDS011;11407;56.964;-2.212;2022-07-12T11:11:32;0.70;;;0.70;;
22480;SDS011;11407;56.964;-2.212;2022-07-12T11:14:00;1.00;;;0.77;;
22480;SDS011;11407;56.964;-2.212;2022-07-12T11:16:27;0.70;;;0.70;;
22480;SDS011;11407;56.964;-2.212;2022-07-12T11:18:54;0.70;;;0.70;;
22480;SDS011;11407;56.964;-2.212;2022-07-12T11:21:20;0.60;;;0.60;;
22480;SDS011;11407;56.964;-2.212;2022-07-12T11:23:47;1.27;;;0.63;;
22480;SDS011;11407;56.964;-2.212;2022-07-12T11:26:13;0.60;;;0.60;;
22480;SDS011;11407;56.964;-2.212;2022-07-12T11:28:40;0.50;;;0.50;;
22480;SDS011;11407;56.964;-2.212;2022-07-12T11:31:07;0.30;;;0.30;;
22480;SDS011;11407;56.964;-2.212;2022-07-12T11:33:42;1.10;;;0.40;;
22480;SDS011;11407;56.964;-2.212;2022-07-12T11:36:10;0.38;;;0.38;;
22480;SDS011;11407;56.964;-2.212;2022-07-12T11:38:38;0.88;;;0.30;;
22480;SDS011;11407;56.964;-2.212;2022-07-12T11:41:06;1.52;;;0.40;;
22480;SDS011;11407;56.964;-2.212;2022-07-12T11:43:33;0.32;;;0.32;;
22480;SDS011;11407;56.964;-2.212;2022-07-12T11:46:00;0.65;;;0.40;;
22480;SDS011;11407;56.964;-2.212;2022-07-12T11:48:27;0.30;;;0.30;;
22480;SDS011;11407;56.964;-2.212;2022-07-12T11:50:54;0.30;;;0.30;;
22480;SDS011;11407;56.964;-2.212;2022-07-12T11:55:48;0.30;;;0.30;;
22480;SDS011;11407;56.964;-2.212;2022-07-12T11:58:15;0.40;;;0.40;;
22480;SDS011;11407;56.964;-2.212;2022-07-12T12:00:42;0.30;;;0.30;;
22480;SDS011;11407;56.964;-2.212;2022-07-12T12:03:08;0.40;;;0.40;;
22480;SDS011;11407;56.964;-2.212;2022-07-12T12:05:34;0.40;;;0.40;;
22480;SDS011;11407;56.964;-2.212;2022-07-12T12:08:02;0.30;;;0.30;;
22480;SDS011;11407;56.964;-2.212;2022-07-12T12:10:30;0.52;;;0.32;;
22480;SDS011;11407;56.964;-2.212;2022-07-12T12:12:57;0.30;;;0.30;;
22480;SDS011;11407;56.964;-2.212;2022-07-12T12:15:27;0.30;;;0.30;;
22480;SDS011;11407;56.964;-2.212;2022-07-12T12:22:50;0.30;;;0.30;;
22480;SDS011;11407;56.964;-2.212;2022-07-12T12:25:21;0.40;;;0.40;;
22480;SDS011;11407;56.964;-2.212;2022-07-12T12:30:20;1.10;;;0.90;;
22480;SDS011;11407;56.964;-2.212;2022-07-12T12:32:46;4.43;;;0.60;;
22480;SDS011;11407;56.964;-2.212;2022-07-12T12:35:22;0.53;;;0.40;;
22480;SDS011;11407;56.964;-2.212;2022-07-12T12:37:55;0.30;;;0.30;;
22480;SDS011;11407;56.964;-2.212;2022-07-12T12:40:25;0.30;;;0.30;;
22480;SDS011;11407;56.964;-2.212;2022-07-12T12:42:52;0.80;;;0.40;;
22480;SDS011;11407;56.964;-2.212;2022-07-12T12:45:22;0.30;;;0.30;;
22480;SDS011;11407;56.964;-2.212;2022-07-12T12:47:53;0.40;;;0.40;;
22480;SDS011;11407;56.964;-2.212;2022-07-12T12:50:34;0.30;;;0.30;;
22480;SDS011;11407;56.964;-2.212;2022-07-12T12:53:13;5.30;;;0.70;;
22480;SDS011;11407;56.964;-2.212;2022-07-12T12:55:41;0.40;;;0.40;;
22480;SDS011;11407;56.964;-2.212;2022-07-12T12:58:08;0.30;;;0.30;;
22480;SDS011;11407;56.964;-2.212;2022-07-12T13:00:35;0.57;;;0.50;;
22480;SDS011;11407;56.964;-2.212;2022-07-12T13:03:05;0.40;;;0.40;;
22480;SDS011;11407;56.964;-2.212;2022-07-12T13:05:32;0.80;;;0.50;;
22480;SDS011;11407;56.964;-2.212;2022-07-12T13:07:58;0.60;;;0.60;;
22480;SDS011;11407;56.964;-2.212;2022-07-12T13:10:23;0.50;;;0.50;;
22480;SDS011;11407;56.964;-2.212;2022-07-12T13:12:49;1.13;;;0.70;;
22480;SDS011;11407;56.964;-2.212;2022-07-12T13:15:16;1.00;;;0.60;;
22480;SDS011;11407;56.964;-2.212;2022-07-12T13:17:42;0.63;;;0.47;;
22480;SDS011;11407;56.964;-2.212;2022-07-12T13:20:08;0.40;;;0.40;;
22480;SDS011;11407;56.964;-2.212;2022-07-12T13:22:34;0.40;;;0.40;;
22480;SDS011;11407;56.964;-2.212;2022-07-12T13:25:00;0.30;;;0.30;;
22480;SDS011;11407;56.964;-2.212;2022-07-12T13:27:25;0.40;;;0.40;;
22480;SDS011;11407;56.964;-2.212;2022-07-12T13:29:52;0.40;;;0.40;;
22480;SDS011;11407;56.964;-2.212;2022-07-12T13:32:17;1.50;;;0.50;;
22480;SDS011;11407;56.964;-2.212;2022-07-12T13:34:43;0.40;;;0.40;;
22480;SDS011;11407;56.964;-2.212;2022-07-12T13:37:12;0.50;;;0.50;;
22480;SDS011;11407;56.964;-2.212;2022-07-12T13:39:38;0.50;;;0.50;;
22480;SDS011;11407;56.964;-2.212;2022-07-12T13:42:22;0.70;;;0.43;;
22480;SDS011;11407;56.964;-2.212;2022-07-12T13:44:47;0.40;;;0.40;;
22480;SDS011;11407;56.964;-2.212;2022-07-12T13:47:13;0.40;;;0.40;;
22480;SDS011;11407;56.964;-2.212;2022-07-12T13:49:39;0.60;;;0.53;;
22480;SDS011;11407;56.964;-2.212;2022-07-12T13:52:04;0.80;;;0.57;;
22480;SDS011;11407;56.964;-2.212;2022-07-12T13:54:30;0.40;;;0.40;;
22480;SDS011;11407;56.964;-2.212;2022-07-12T13:56:56;0.50;;;0.50;;
22480;SDS011;11407;56.964;-2.212;2022-07-12T13:59:21;0.50;;;0.50;;
22480;SDS011;11407;56.964;-2.212;2022-07-12T14:01:46;0.77;;;0.50;;
22480;SDS011;11407;56.964;-2.212;2022-07-12T14:04:12;1.63;;;0.70;;
22480;SDS011;11407;56.964;-2.212;2022-07-12T14:06:38;0.60;;;0.57;;
22480;SDS011;11407;56.964;-2.212;2022-07-12T14:09:03;0.50;;;0.50;;
22480;SDS011;11407;56.964;-2.212;2022-07-12T14:11:28;0.60;;;0.50;;
22480;SDS011;11407;56.964;-2.212;2022-07-12T14:13:54;0.80;;;0.60;;
22480;SDS011;11407;56.964;-2.212;2022-07-12T14:16:19;0.60;;;0.60;;
22480;SDS011;11407;56.964;-2.212;2022-07-12T14:18:46;0.40;;;0.40;;
22480;SDS011;11407;56.964;-2.212;2022-07-12T14:21:11;1.43;;;0.50;;
22480;SDS011;11407;56.964;-2.212;2022-07-12T14:23:37;3.17;;;0.70;;
22480;SDS011;11407;56.964;-2.212;2022-07-12T14:26:03;1.30;;;0.60;;
22480;SDS011;11407;56.964;-2.212;2022-07-12T14:28:28;0.43;;;0.43;;
22480;SDS011;11407;56.964;-2.212;2022-07-12T14:30:54;1.17;;;0.70;;
22480;SDS011;11407;56.964;-2.212;2022-07-12T14:33:19;0.50;;;0.50;;
22480;SDS011;11407;56.964;-2.212;2022-07-12T14:35:45;3.80;;;0.80;;
22480;SDS011;11407;56.964;-2.212;2022-07-12T14:38:11;0.90;;;0.60;;
22480;SDS011;11407;56.964;-2.212;2022-07-12T14:40:37;1.60;;;0.60;;
22480;SDS011;11407;56.964;-2.212;2022-07-12T14:43:03;0.60;;;0.60;;
22480;SDS011;11407;56.964;-2.212;2022-07-12T14:45:29;0.97;;;0.60;;
22480;SDS011;11407;56.964;-2.212;2022-07-12T14:47:54;1.30;;;0.60;;
22480;SDS011;11407;56.964;-2.212;2022-07-12T14:50:20;0.70;;;0.70;;
22480;SDS011;11407;56.964;-2.212;2022-07-12T14:52:45;1.53;;;0.60;;
22480;SDS011;11407;56.964;-2.212;2022-07-12T14:55:11;1.67;;;0.80;;
22480;SDS011;11407;56.964;-2.212;2022-07-12T14:57:37;1.97;;;0.80;;
22480;SDS011;11407;56.964;-2.212;2022-07-12T15:00:04;2.77;;;0.70;;
22480;SDS011;11407;56.964;-2.212;2022-07-12T15:02:31;1.40;;;0.63;;